createdAt,value
2018-06-04T00:00:05.389Z,41.93
2018-06-04T00:02:08.592Z,34.60
2018-06-04T00:04:12.809Z,34.37
2018-06-04T00:06:16.009Z,35.13
2018-06-04T00:08:19.152Z,34.80
2018-06-04T00:10:22.293Z,37.57
2018-06-04T00:12:25.448Z,36.40
2018-06-04T00:14:28.616Z,35.27
2018-06-04T00:16:31.767Z,33.30
2018-06-04T00:18:34.917Z,38.57
2018-06-04T00:20:38.061Z,37.20
2018-06-04T00:22:41.288Z,35.70
2018-06-04T00:24:44.204Z,36.20
2018-06-04T00:26:47.360Z,31.63
2018-06-04T00:28:50.776Z,34.23
2018-06-04T00:30:53.917Z,33.50
2018-06-04T00:32:57.089Z,35.43
2018-06-04T00:35:00.231Z,37.73
2018-06-04T00:37:03.379Z,37.30
2018-06-04T00:39:07.162Z,36.67
2018-06-04T00:41:10.296Z,36.87
2018-06-04T00:43:13.424Z,39.20
2018-06-04T00:45:16.557Z,36.77
2018-06-04T00:47:19.921Z,36.10
2018-06-04T00:49:23.062Z,36.13
2018-06-04T00:51:26.217Z,34.47
2018-06-04T00:53:29.353Z,33.27
2018-06-04T00:55:37.508Z,31.50
2018-06-04T00:57:40.645Z,31.50
2018-06-04T00:59:43.787Z,31.60
2018-06-04T01:01:46.927Z,34.57
2018-06-04T01:03:50.089Z,31.83
2018-06-04T01:05:53.236Z,31.97
2018-06-04T01:07:56.384Z,34.80
2018-06-04T01:09:59.605Z,36.50
2018-06-04T01:12:02.745Z,36.87
2018-06-04T01:14:05.879Z,34.23
2018-06-04T01:16:09.004Z,35.70
2018-06-04T01:18:12.143Z,37.47
2018-06-04T01:20:15.316Z,36.00
2018-06-04T01:22:18.470Z,39.37
2018-06-04T01:24:21.604Z,39.23
2018-06-04T01:26:24.748Z,41.33
2018-06-04T01:28:27.896Z,38.87
2018-06-04T01:30:31.082Z,42.97
2018-06-04T01:32:34.228Z,41.07
2018-06-04T01:34:37.420Z,44.27
2018-06-04T01:36:40.567Z,45.70
2018-06-04T01:38:43.742Z,46.77
2018-06-04T01:40:46.892Z,40.90
2018-06-04T01:42:50.069Z,43.23
2018-06-04T01:44:53.218Z,42.40
2018-06-04T01:46:56.406Z,41.70
2018-06-04T01:48:59.572Z,44.83
2018-06-04T01:51:02.733Z,46.97
2018-06-04T01:53:05.885Z,45.70
2018-06-04T01:55:09.020Z,42.00
2018-06-04T01:57:12.180Z,46.50
2018-06-04T01:59:15.347Z,47.00
2018-06-04T02:01:18.509Z,47.07
2018-06-04T02:03:21.668Z,59.60
2018-06-04T02:05:24.811Z,61.43
2018-06-04T02:07:27.974Z,59.03
2018-06-04T02:09:31.127Z,55.57
2018-06-04T02:11:34.277Z,66.27
2018-06-04T02:13:37.504Z,61.87
2018-06-04T02:15:40.662Z,64.33
2018-06-04T02:17:43.828Z,61.37
2018-06-04T02:19:46.992Z,60.20
2018-06-04T02:21:50.217Z,57.83
2018-06-04T02:23:53.368Z,54.67
2018-06-04T02:25:56.515Z,50.47
2018-06-04T02:27:59.661Z,49.60
2018-06-04T02:30:02.808Z,53.80
2018-06-04T02:32:06.011Z,47.37
2018-06-04T02:34:09.151Z,51.47
2018-06-04T02:36:12.305Z,55.00
2018-06-04T02:38:15.469Z,54.07
2018-06-04T02:40:18.608Z,49.13
2018-06-04T02:42:21.749Z,49.87
2018-06-04T02:44:24.891Z,48.90
2018-06-04T02:46:28.052Z,48.47
2018-06-04T02:48:31.195Z,47.00
2018-06-04T02:50:34.341Z,45.53
2018-06-04T02:52:37.540Z,49.17
2018-06-04T02:54:40.512Z,40.97
2018-06-04T02:56:43.654Z,45.27
2018-06-04T02:58:46.808Z,44.30
2018-06-04T03:00:49.961Z,44.37
2018-06-04T03:02:53.164Z,45.80
2018-06-04T03:04:56.309Z,43.30
2018-06-04T03:06:59.458Z,44.30
2018-06-04T03:09:02.669Z,44.73
2018-06-04T03:11:05.821Z,45.37
2018-06-04T03:13:08.975Z,44.83
2018-06-04T03:15:12.128Z,50.17
2018-06-04T03:17:15.295Z,49.33
2018-06-04T03:19:18.442Z,53.13
2018-06-04T03:21:21.605Z,56.23
2018-06-04T03:23:24.742Z,55.30
2018-06-04T03:25:27.893Z,56.40
2018-06-04T03:27:31.048Z,56.40
2018-06-04T03:29:34.219Z,61.80
2018-06-04T03:31:37.384Z,54.13
2018-06-04T03:33:40.536Z,54.47
2018-06-04T03:35:43.710Z,57.60
2018-06-04T03:37:46.858Z,59.73
2018-06-04T03:39:50.007Z,60.07
2018-06-04T03:41:53.139Z,63.20
2018-06-04T03:43:56.277Z,57.37
2018-06-04T03:45:59.420Z,60.50
2018-06-04T03:48:02.567Z,52.17
2018-06-04T03:50:05.701Z,46.80
2018-06-04T03:52:08.911Z,48.83
2018-06-04T03:54:11.977Z,49.63
2018-06-04T03:56:15.195Z,51.20
2018-06-04T03:58:18.337Z,49.77
2018-06-04T04:00:21.497Z,54.53
2018-06-04T04:02:24.647Z,55.87
2018-06-04T04:04:27.804Z,51.60
2018-06-04T04:06:31.022Z,52.10
2018-06-04T04:08:34.160Z,49.13
2018-06-04T04:10:37.477Z,48.70
2018-06-04T04:12:40.608Z,50.57
2018-06-04T04:14:43.765Z,51.07
2018-06-04T04:16:47.188Z,47.77
2018-06-04T04:18:50.324Z,46.30
2018-06-04T04:20:53.490Z,50.87
2018-06-04T04:22:56.645Z,46.50
2018-06-04T04:24:59.568Z,47.50
2018-06-04T04:27:02.704Z,48.37
2018-06-04T04:29:05.936Z,47.77
2018-06-04T04:31:09.084Z,48.50
2018-06-04T04:33:12.220Z,47.00
2018-06-04T04:35:15.359Z,44.70
2018-06-04T04:37:18.490Z,45.50
2018-06-04T04:39:21.721Z,49.43
2018-06-04T04:41:24.868Z,46.83
2018-06-04T04:43:27.987Z,46.37
2018-06-04T04:45:31.131Z,46.27
2018-06-04T04:47:34.264Z,45.93
2018-06-04T04:49:37.423Z,44.60
2018-06-04T04:51:40.580Z,52.60
2018-06-04T04:53:43.774Z,48.20
2018-06-04T04:55:46.909Z,43.70
2018-06-04T04:57:50.041Z,38.50
2018-06-04T04:59:53.260Z,35.73
2018-06-04T05:01:56.400Z,34.80
2018-06-04T05:03:59.548Z,33.63
2018-06-04T05:06:02.692Z,32.20
2018-06-04T05:08:05.840Z,31.67
2018-06-04T05:10:08.986Z,32.73
2018-06-04T05:12:12.126Z,30.97
2018-06-04T05:14:15.252Z,30.40
2018-06-04T05:16:18.388Z,31.17
2018-06-04T05:18:21.560Z,29.73
2018-06-04T05:20:24.729Z,29.07
2018-06-04T05:22:27.959Z,30.60
2018-06-04T05:24:31.102Z,30.37
2018-06-04T05:26:34.246Z,30.03
2018-06-04T05:28:37.361Z,31.10
2018-06-04T05:30:40.496Z,30.20
2018-06-04T05:32:43.643Z,31.80
2018-06-04T05:34:46.780Z,28.90
2018-06-04T05:36:49.939Z,28.93
2018-06-04T05:38:53.144Z,29.83
2018-06-04T05:40:56.054Z,29.63
2018-06-04T05:42:59.208Z,26.23
2018-06-04T05:45:02.350Z,30.07
2018-06-04T05:47:05.606Z,29.37
2018-06-04T05:49:08.745Z,25.30
2018-06-04T05:51:11.904Z,26.73
2018-06-04T05:53:15.060Z,28.13
2018-06-04T05:55:19.798Z,28.07
2018-06-04T05:57:22.948Z,27.80
2018-06-04T05:59:26.103Z,26.93
2018-06-04T06:01:29.240Z,28.53
2018-06-04T06:03:32.383Z,27.57
2018-06-04T06:05:35.537Z,25.13
2018-06-04T06:07:38.754Z,28.70
2018-06-04T06:09:41.912Z,28.83
2018-06-04T06:11:45.093Z,26.57
2018-06-04T06:13:48.255Z,25.57
2018-06-04T06:15:51.401Z,26.83
2018-06-04T06:17:54.546Z,28.20
2018-06-04T06:19:57.699Z,26.40
2018-06-04T06:22:00.660Z,27.30
2018-06-04T06:24:03.806Z,28.40
2018-06-04T06:26:06.961Z,28.37
2018-06-04T06:28:10.189Z,26.53
2018-06-04T06:30:13.422Z,27.47
2018-06-04T06:32:16.396Z,27.80
2018-06-04T06:34:19.545Z,28.27
2018-06-04T06:36:22.860Z,29.13
2018-06-04T06:38:26.029Z,26.47
2018-06-04T06:40:29.171Z,28.37
2018-06-04T06:42:32.321Z,28.90
2018-06-04T06:44:35.552Z,27.63
2018-06-04T06:46:38.736Z,28.37
2018-06-04T06:48:41.939Z,29.73
2018-06-04T06:50:45.204Z,29.00
2018-06-04T06:52:48.357Z,27.37
2018-06-04T06:54:51.514Z,29.40
2018-06-04T06:56:54.822Z,29.73
2018-06-04T06:58:58.061Z,33.07
2018-06-04T07:01:01.293Z,33.30
2018-06-04T07:03:04.469Z,33.53
2018-06-04T07:05:07.622Z,34.07
2018-06-04T07:07:10.785Z,33.73
2018-06-04T07:09:13.765Z,35.03
2018-06-04T07:11:16.687Z,35.20
2018-06-04T07:13:19.848Z,39.23
2018-06-04T07:15:23.028Z,35.40
2018-06-04T07:17:26.488Z,35.47
2018-06-04T07:19:29.670Z,38.40
2018-06-04T07:21:32.893Z,38.83
2018-06-04T07:23:36.103Z,37.30
2018-06-04T07:25:39.591Z,37.27
2018-06-04T07:27:42.568Z,39.30
2018-06-04T07:29:45.785Z,37.50
2018-06-04T07:31:49.064Z,41.73
2018-06-04T07:33:52.233Z,40.60
2018-06-04T07:36:00.936Z,41.50
2018-06-04T07:38:04.113Z,41.77
2018-06-04T07:40:07.384Z,41.07
2018-06-04T07:42:10.554Z,42.00
2018-06-04T07:44:13.732Z,40.30
2018-06-04T07:46:25.653Z,37.70
2018-06-04T07:48:28.840Z,42.47
2018-06-04T07:50:32.042Z,40.93
2018-06-04T07:52:35.303Z,41.40
2018-06-04T07:54:38.191Z,40.87
2018-06-04T07:56:41.380Z,39.53
2018-06-04T07:58:44.536Z,43.53
2018-06-04T08:00:47.742Z,37.90
2018-06-04T08:02:50.845Z,42.50
2018-06-04T08:04:54.004Z,42.07
2018-06-04T08:06:57.255Z,38.40
2018-06-04T08:09:00.175Z,35.53
2018-06-04T08:11:03.325Z,38.63
2018-06-04T08:13:06.532Z,41.73
2018-06-04T08:15:09.704Z,42.40
2018-06-04T08:17:12.861Z,44.87
2018-06-04T08:19:16.018Z,40.13
2018-06-04T08:21:19.193Z,38.10
2018-06-04T08:23:22.372Z,36.63
2018-06-04T08:25:25.514Z,38.43
2018-06-04T08:27:28.655Z,38.10
2018-06-04T08:29:31.824Z,38.73
2018-06-04T08:31:34.996Z,32.53
2018-06-04T08:33:38.151Z,33.13
2018-06-04T08:35:41.293Z,36.47
2018-06-04T08:37:44.465Z,37.17
2018-06-04T08:39:47.739Z,34.70
2018-06-04T08:41:50.893Z,32.10
2018-06-04T08:43:54.039Z,33.00
2018-06-04T08:45:57.198Z,29.60
2018-06-04T08:48:00.693Z,32.50
2018-06-04T08:50:03.860Z,32.33
2018-06-04T08:52:07.030Z,35.30
2018-06-04T08:54:11.085Z,34.00
2018-06-04T08:56:14.270Z,33.67
2018-06-04T08:58:17.389Z,33.80
2018-06-04T09:00:20.545Z,39.07
2018-06-04T09:02:23.697Z,37.57
2018-06-04T09:04:26.849Z,37.70
2018-06-04T09:06:30.021Z,39.53
2018-06-04T09:08:33.348Z,36.27
2018-06-04T09:10:36.496Z,38.53
2018-06-04T09:12:39.659Z,34.33
2018-06-04T09:14:42.829Z,35.10
2018-06-04T09:16:45.989Z,35.00
2018-06-04T09:18:49.152Z,31.83
2018-06-04T09:20:52.301Z,34.37
2018-06-04T09:22:55.455Z,34.40
2018-06-04T09:24:58.598Z,35.73
2018-06-04T09:27:01.763Z,29.00
2018-06-04T09:29:04.981Z,28.13
2018-06-04T09:31:08.145Z,30.50
2018-06-04T09:33:11.288Z,28.93
2018-06-04T09:35:14.415Z,26.40
2018-06-04T09:37:17.676Z,28.30
2018-06-04T09:39:20.842Z,26.60
2018-06-04T09:41:23.988Z,27.33
2018-06-04T09:43:27.157Z,29.63
2018-06-04T09:45:30.316Z,24.40
2018-06-04T09:47:33.353Z,24.17
2018-06-04T09:49:36.456Z,26.00
2018-06-04T09:51:39.612Z,23.27
2018-06-04T09:53:42.870Z,22.30
2018-06-04T09:55:46.013Z,21.93
2018-06-04T09:57:49.248Z,22.53
2018-06-04T09:59:52.400Z,21.37
2018-06-04T10:01:55.642Z,22.37
2018-06-04T10:03:58.779Z,30.40
2018-06-04T10:06:01.929Z,30.90
2018-06-04T10:08:05.071Z,32.17
2018-06-04T10:10:08.212Z,34.57
2018-06-04T10:12:11.366Z,33.40
2018-06-04T10:14:14.519Z,34.10
2018-06-04T10:16:17.666Z,31.20
2018-06-04T10:18:20.833Z,34.60
2018-06-04T10:20:24.086Z,35.20
2018-06-04T10:22:27.003Z,36.13
2018-06-04T10:24:30.199Z,35.70
2018-06-04T10:26:33.349Z,38.00
2018-06-04T10:28:36.259Z,41.70
2018-06-04T10:30:39.396Z,37.23
2018-06-04T10:32:42.545Z,39.07
2018-06-04T10:34:45.704Z,38.73
2018-06-04T10:36:48.863Z,36.70
2018-06-04T10:38:52.016Z,37.90
2018-06-04T10:40:55.195Z,36.60
2018-06-04T10:42:58.339Z,36.63
2018-06-04T10:45:01.478Z,34.30
2018-06-04T10:47:04.637Z,38.40
2018-06-04T10:49:07.773Z,36.03
2018-06-04T10:51:10.924Z,37.57
2018-06-04T10:53:14.230Z,37.50
2018-06-04T10:55:17.396Z,39.20
2018-06-04T10:57:20.536Z,34.63
2018-06-04T10:59:23.693Z,33.17
2018-06-04T11:01:26.836Z,34.67
2018-06-04T11:03:29.991Z,36.87
2018-06-04T11:05:33.168Z,36.33
2018-06-04T11:07:36.320Z,33.93
2018-06-04T11:09:39.484Z,33.33
2018-06-04T11:11:42.776Z,34.97
2018-06-04T11:13:46.020Z,36.80
2018-06-04T11:15:49.165Z,36.70
2018-06-04T11:17:52.308Z,35.30
2018-06-04T11:19:55.458Z,35.73
2018-06-04T11:21:58.616Z,36.70
2018-06-04T11:24:01.796Z,34.47
2018-06-04T11:26:04.922Z,33.60
2018-06-04T11:28:08.056Z,32.93
2018-06-04T11:30:11.209Z,32.03
2018-06-04T11:32:14.355Z,31.57
2018-06-04T11:34:17.749Z,29.40
2018-06-04T11:36:20.884Z,32.50
2018-06-04T11:38:23.852Z,29.00
2018-06-04T11:40:26.990Z,27.63
2018-06-04T11:42:30.124Z,26.23
2018-06-04T11:44:33.261Z,27.70
2018-06-04T11:46:36.478Z,31.20
2018-06-04T11:48:39.616Z,29.87
2018-06-04T11:50:42.736Z,32.20
2018-06-04T11:52:45.869Z,31.53
2018-06-04T11:54:48.782Z,30.83
2018-06-04T11:56:51.908Z,31.50
2018-06-04T11:58:55.051Z,29.70
2018-06-04T12:00:58.207Z,26.70
2018-06-04T12:03:01.363Z,29.20
2018-06-04T12:05:04.520Z,30.70
2018-06-04T12:07:07.660Z,30.03
2018-06-04T12:09:10.836Z,26.20
2018-06-04T12:11:13.971Z,27.43
2018-06-04T12:13:17.115Z,30.30
2018-06-04T12:15:20.243Z,32.23
2018-06-04T12:17:23.396Z,31.30
2018-06-04T12:19:26.549Z,33.00
2018-06-04T12:21:29.944Z,28.20
2018-06-04T12:23:33.085Z,30.00
2018-06-04T12:25:36.216Z,28.03
2018-06-04T12:27:39.371Z,31.00
2018-06-04T12:29:42.553Z,30.83
2018-06-04T12:31:45.693Z,33.67
2018-06-04T12:33:48.831Z,30.30
2018-06-04T12:35:51.955Z,29.07
2018-06-04T12:37:55.107Z,32.40
2018-06-04T12:39:58.268Z,29.90
2018-06-04T12:42:01.219Z,30.20
2018-06-04T12:44:04.367Z,28.37
2018-06-04T12:46:07.495Z,30.77
2018-06-04T12:48:10.673Z,29.33
2018-06-04T12:50:13.760Z,26.80
2018-06-04T12:52:16.900Z,26.30
2018-06-04T12:54:20.024Z,29.07
2018-06-04T12:56:23.167Z,29.80
2018-06-04T12:58:26.300Z,26.20
2018-06-04T13:00:29.541Z,26.40
2018-06-04T13:02:32.659Z,26.27
2018-06-04T13:04:35.861Z,28.80
2018-06-04T13:06:38.933Z,28.53
2018-06-04T13:08:42.311Z,27.73
2018-06-04T13:10:45.460Z,29.67
2018-06-04T13:12:48.664Z,31.80
2018-06-04T13:14:51.811Z,31.20
2018-06-04T13:16:54.721Z,29.27
2018-06-04T13:18:57.851Z,30.10
2018-06-04T13:21:00.988Z,31.90
2018-06-04T13:23:04.115Z,32.13
2018-06-04T13:25:07.236Z,28.77
2018-06-04T13:27:10.207Z,32.13
2018-06-04T13:29:13.356Z,26.97
2018-06-04T13:31:16.476Z,30.83
2018-06-04T13:33:19.615Z,31.40
2018-06-04T13:35:22.743Z,30.17
2018-06-04T13:37:25.879Z,32.07
2018-06-04T13:39:30.098Z,33.50
2018-06-04T13:41:33.224Z,30.33
2018-06-04T13:43:36.424Z,31.30
2018-06-04T13:45:42.880Z,26.47
2018-06-04T13:47:46.054Z,30.50
2018-06-04T13:49:49.196Z,31.77
2018-06-04T13:51:52.488Z,29.57
2018-06-04T13:53:55.837Z,29.83
2018-06-04T13:55:59.000Z,31.80
2018-06-04T13:58:02.144Z,27.37
2018-06-04T14:00:05.544Z,26.57
2018-06-04T14:02:08.795Z,27.23
2018-06-04T14:04:11.968Z,25.07
2018-06-04T14:06:15.127Z,24.77
2018-06-04T14:08:18.251Z,24.17
2018-06-04T14:10:21.481Z,24.70
2018-06-04T14:12:24.609Z,23.73
2018-06-04T14:14:27.748Z,24.77
2018-06-04T14:16:31.584Z,25.93
2018-06-04T14:18:34.749Z,24.67
2018-06-04T14:20:37.883Z,22.83
2018-06-04T14:22:41.021Z,24.57
2018-06-04T14:24:44.167Z,22.70
2018-06-04T14:26:47.099Z,22.37
2018-06-04T14:28:50.245Z,24.37
2018-06-04T14:30:53.400Z,21.83
2018-06-04T14:32:56.551Z,20.00
2018-06-04T14:34:59.792Z,21.17
2018-06-04T14:37:02.939Z,22.50
2018-06-04T14:39:08.609Z,21.70
2018-06-04T14:41:11.720Z,22.23
2018-06-04T14:43:14.879Z,22.50
2018-06-04T14:45:18.040Z,22.17
2018-06-04T14:47:21.209Z,20.93
2018-06-04T14:49:24.341Z,21.10
2018-06-04T14:51:27.511Z,20.63
2018-06-04T14:53:30.668Z,17.87
2018-06-04T14:55:33.912Z,16.67
2018-06-04T14:57:37.056Z,19.10
2018-06-04T14:59:40.191Z,18.50
2018-06-04T15:01:43.167Z,16.17
2018-06-04T15:03:46.343Z,16.63
2018-06-04T15:05:49.504Z,17.80
2018-06-04T15:07:52.664Z,16.30
2018-06-04T15:09:55.841Z,16.23
2018-06-04T15:11:58.976Z,15.03
2018-06-04T15:14:02.163Z,15.50
2018-06-04T15:16:05.321Z,16.07
2018-06-04T15:18:08.473Z,22.10
2018-06-04T15:20:12.212Z,16.57
2018-06-04T15:22:15.396Z,16.30
2018-06-04T15:24:18.600Z,18.47
2018-06-04T15:26:21.785Z,15.93
2018-06-04T15:28:24.943Z,16.87
2018-06-04T15:30:28.096Z,16.63
2018-06-04T15:32:31.009Z,17.20
2018-06-04T15:34:34.164Z,16.63
2018-06-04T15:36:37.076Z,17.77
2018-06-04T15:38:40.320Z,16.90
2018-06-04T15:40:43.779Z,16.87
2018-06-04T15:42:46.912Z,16.13
2018-06-04T15:44:49.842Z,16.17
2018-06-04T15:46:52.984Z,17.40
2018-06-04T15:48:56.955Z,14.60
2018-06-04T15:51:00.204Z,14.80
2018-06-04T15:53:03.548Z,14.23
2018-06-04T15:55:06.729Z,16.03
2018-06-04T15:57:09.888Z,14.13
2018-06-04T15:59:13.024Z,15.50
2018-06-04T16:01:16.037Z,16.10
2018-06-04T16:03:19.227Z,18.37
2018-06-04T16:05:22.375Z,15.90
2018-06-04T16:07:25.516Z,17.13
2018-06-04T16:09:28.706Z,17.33
2018-06-04T16:11:31.804Z,18.93
2018-06-04T16:13:34.933Z,17.27
2018-06-04T16:15:37.895Z,17.73
2018-06-04T16:17:41.032Z,17.70
2018-06-04T16:19:44.261Z,18.37
2018-06-04T16:21:47.420Z,18.80
2018-06-04T16:23:50.779Z,17.67
2018-06-04T16:25:53.900Z,17.90
2018-06-04T16:27:57.049Z,18.10
2018-06-04T16:30:00.176Z,16.17
2018-06-04T16:32:03.350Z,15.30
2018-06-04T16:34:06.467Z,16.60
2018-06-04T16:36:09.608Z,14.00
2018-06-04T16:38:12.799Z,15.60
2018-06-04T16:40:15.937Z,13.70
2018-06-04T16:42:19.090Z,14.77
2018-06-04T16:44:22.221Z,14.87
2018-06-04T16:46:25.125Z,18.03
2018-06-04T16:48:28.271Z,17.13
2018-06-04T16:50:31.467Z,16.00
2018-06-04T16:52:34.608Z,17.83
2018-06-04T16:54:37.727Z,14.50
2018-06-04T16:56:40.880Z,15.77
2018-06-04T16:58:44.016Z,16.37
2018-06-04T17:00:46.952Z,16.40
2018-06-04T17:02:50.098Z,16.40
2018-06-04T17:04:53.246Z,17.20
2018-06-04T17:06:56.377Z,17.27
2018-06-04T17:08:59.516Z,17.57
2018-06-04T17:11:03.047Z,15.87
2018-06-04T17:13:06.295Z,15.77
2018-06-04T17:15:09.909Z,14.20
2018-06-04T17:17:13.096Z,17.87
2018-06-04T17:19:16.261Z,17.23
2018-06-04T17:21:19.362Z,17.40
2018-06-04T17:23:22.503Z,17.63
2018-06-04T17:25:25.636Z,17.10
2018-06-04T17:27:28.767Z,17.00
2018-06-04T17:29:31.916Z,17.27
2018-06-04T17:31:35.039Z,17.30
2018-06-04T17:33:38.177Z,17.20
2018-06-04T17:35:41.313Z,15.50
2018-06-04T17:37:44.444Z,16.47
2018-06-04T17:39:47.600Z,14.07
2018-06-04T17:41:51.484Z,14.40
2018-06-04T17:43:54.617Z,15.80
2018-06-04T17:45:57.758Z,13.93
2018-06-04T17:48:00.892Z,14.33
2018-06-04T17:50:04.145Z,14.10
2018-06-04T17:52:07.527Z,14.73
2018-06-04T17:54:10.980Z,15.43
2018-06-04T17:56:14.091Z,14.10
2018-06-04T17:58:17.243Z,13.50
2018-06-04T18:00:20.466Z,13.30
2018-06-04T18:02:23.597Z,14.23
2018-06-04T18:04:26.719Z,14.83
2018-06-04T18:06:30.608Z,14.20
2018-06-04T18:08:33.762Z,14.33
2018-06-04T18:10:36.988Z,14.50
2018-06-04T18:12:40.136Z,14.13
2018-06-04T18:14:43.387Z,14.50
2018-06-04T18:16:46.923Z,12.67
2018-06-04T18:18:50.083Z,13.77
2018-06-04T18:20:53.221Z,13.50
2018-06-04T18:22:56.383Z,12.70
2018-06-04T18:24:59.670Z,11.30
2018-06-04T18:27:03.732Z,13.47
2018-06-04T18:29:06.867Z,13.87
2018-06-04T18:31:10.067Z,13.47
2018-06-04T18:33:13.238Z,12.37
2018-06-04T18:35:16.423Z,12.57
2018-06-04T18:37:19.819Z,13.33
2018-06-04T18:39:23.007Z,11.77
2018-06-04T18:41:26.166Z,10.93
2018-06-04T18:43:29.312Z,12.37
2018-06-04T18:45:32.629Z,13.47
2018-06-04T18:47:35.884Z,12.23
2018-06-04T18:49:39.064Z,13.40
2018-06-04T18:51:42.360Z,14.77
2018-06-04T18:53:45.572Z,13.30
2018-06-04T18:55:48.593Z,14.30
2018-06-04T18:57:51.849Z,14.20
2018-06-04T18:59:55.072Z,13.97
2018-06-04T19:01:58.287Z,15.00
2018-06-04T19:04:01.497Z,16.20
2018-06-04T19:06:04.704Z,12.90
2018-06-04T19:08:07.941Z,14.37
2018-06-04T19:10:11.160Z,14.70
2018-06-04T19:12:14.417Z,14.90
2018-06-04T19:14:17.582Z,14.90
2018-06-04T19:16:20.779Z,14.33
2018-06-04T19:18:24.004Z,14.90
2018-06-04T19:20:27.203Z,14.00
2018-06-04T19:22:30.369Z,15.70
2018-06-04T19:24:33.633Z,15.77
2018-06-04T19:26:36.808Z,15.57
2018-06-04T19:28:39.990Z,15.43
2018-06-04T19:30:43.172Z,16.50
2018-06-04T19:32:46.342Z,15.27
2018-06-04T19:34:49.496Z,14.87
2018-06-04T19:36:52.813Z,15.80
2018-06-04T19:38:56.049Z,15.67
2018-06-04T19:40:59.259Z,15.80
2018-06-04T19:43:02.476Z,16.40
2018-06-04T19:45:05.683Z,15.50
2018-06-04T19:47:08.852Z,16.33
2018-06-04T19:49:12.105Z,16.67
2018-06-04T19:51:15.322Z,18.03
2018-06-04T19:53:18.614Z,16.50
2018-06-04T19:55:22.307Z,18.77
2018-06-04T19:57:27.898Z,18.03
2018-06-04T19:59:31.114Z,18.30
2018-06-04T20:01:34.303Z,18.33
2018-06-04T20:03:37.469Z,18.57
2018-06-04T20:05:40.693Z,19.13
2018-06-04T20:07:43.865Z,18.37
2018-06-04T20:09:47.106Z,19.50
2018-06-04T20:11:50.388Z,19.73
2018-06-04T20:13:53.553Z,22.00
2018-06-04T20:15:56.815Z,21.67
2018-06-04T20:18:00.237Z,21.47
2018-06-04T20:20:03.388Z,20.47
2018-06-04T20:22:06.536Z,21.70
2018-06-04T20:24:09.737Z,20.83
2018-06-04T20:26:12.937Z,22.50
2018-06-04T20:28:16.190Z,23.03
2018-06-04T20:30:19.209Z,24.30
2018-06-04T20:32:22.376Z,21.57
2018-06-04T20:34:25.553Z,21.97
2018-06-04T20:36:28.769Z,23.37
2018-06-04T20:38:31.891Z,24.10
2018-06-04T20:40:35.138Z,24.37
2018-06-04T20:42:38.319Z,23.13
2018-06-04T20:44:41.526Z,25.17
2018-06-04T20:46:44.700Z,24.10
2018-06-04T20:48:47.891Z,24.23
2018-06-04T20:50:51.080Z,26.80
2018-06-04T20:52:54.288Z,25.17
2018-06-04T20:54:57.536Z,27.53
2018-06-04T20:57:00.665Z,25.97
2018-06-04T20:59:03.844Z,26.63
2018-06-04T21:01:07.015Z,27.67
2018-06-04T21:03:10.204Z,26.17
2018-06-04T21:05:13.405Z,28.57
2018-06-04T21:07:16.648Z,32.30
2018-06-04T21:09:19.914Z,33.40
2018-06-04T21:11:23.085Z,32.97
2018-06-04T21:13:26.302Z,34.97
2018-06-04T21:15:29.524Z,38.90
2018-06-04T21:17:32.789Z,36.43
2018-06-04T21:19:35.959Z,38.67
2018-06-04T21:21:39.139Z,40.13
2018-06-04T21:23:42.491Z,42.30
2018-06-04T21:25:45.707Z,40.90
2018-06-04T21:27:48.886Z,41.53
2018-06-04T21:29:52.736Z,41.53
2018-06-04T21:31:55.972Z,40.73
2018-06-04T21:33:59.160Z,39.40
2018-06-04T21:36:02.445Z,37.30
2018-06-04T21:38:05.645Z,35.07
2018-06-04T21:40:08.779Z,38.73
2018-06-04T21:42:11.949Z,42.27
2018-06-04T21:44:15.183Z,41.30
2018-06-04T21:46:18.371Z,41.80
2018-06-04T21:48:21.637Z,42.53
2018-06-04T21:50:24.824Z,45.93
2018-06-04T21:52:28.077Z,53.00
2018-06-04T21:54:31.322Z,50.67
2018-06-04T21:56:34.490Z,53.20
2018-06-04T21:58:37.699Z,50.40
2018-06-04T22:00:40.904Z,51.20
2018-06-04T22:02:44.073Z,52.37
2018-06-04T22:04:47.318Z,49.33
2018-06-04T22:06:50.483Z,54.10
2018-06-04T22:08:53.475Z,50.97
2018-06-04T22:10:56.664Z,50.20
2018-06-04T22:12:59.882Z,57.10
2018-06-04T22:15:03.092Z,53.37
2018-06-04T22:17:06.750Z,54.50
2018-06-04T22:19:09.988Z,53.97
2018-06-04T22:21:13.148Z,65.00
2018-06-04T22:23:16.431Z,62.60
2018-06-04T22:25:19.601Z,62.90
2018-06-04T22:27:22.789Z,58.00
2018-06-04T22:29:26.001Z,56.93
2018-06-04T22:31:29.179Z,56.53
2018-06-04T22:33:32.361Z,58.77
2018-06-04T22:35:35.584Z,55.53
2018-06-04T22:37:38.964Z,58.80
2018-06-04T22:39:42.176Z,56.00
2018-06-04T22:41:45.397Z,57.70
2018-06-04T22:43:48.664Z,57.50
2018-06-04T22:45:51.848Z,54.53
2018-06-04T22:47:55.071Z,56.37
2018-06-04T22:49:58.290Z,56.20
2018-06-04T22:52:01.467Z,59.17
2018-06-04T22:54:04.681Z,59.10
2018-06-04T22:56:07.852Z,58.40
2018-06-04T22:58:11.075Z,57.40
2018-06-04T23:00:23.116Z,62.17
2018-06-04T23:02:26.385Z,59.13
2018-06-04T23:04:29.594Z,59.90
2018-06-04T23:06:32.737Z,60.57
2018-06-04T23:08:35.938Z,61.17
2018-06-04T23:10:39.155Z,62.73
2018-06-04T23:12:42.360Z,56.43
2018-06-04T23:14:45.594Z,61.73
2018-06-04T23:16:48.783Z,59.30
2018-06-04T23:18:51.947Z,55.70
2018-06-04T23:20:55.193Z,63.60
2018-06-04T23:22:58.377Z,65.90
2018-06-04T23:25:01.541Z,65.07
2018-06-04T23:27:04.777Z,65.37
2018-06-04T23:29:08.043Z,64.27
2018-06-04T23:31:11.256Z,63.50
2018-06-04T23:33:14.453Z,71.17
2018-06-04T23:35:17.670Z,73.90
2018-06-04T23:37:20.894Z,69.77
2018-06-04T23:39:24.124Z,71.83
2018-06-04T23:41:27.399Z,69.47
2018-06-04T23:43:30.590Z,73.97
2018-06-04T23:45:33.743Z,71.27
2018-06-04T23:47:36.952Z,73.90
2018-06-04T23:49:40.157Z,67.90
2018-06-04T23:51:43.331Z,76.77
2018-06-04T23:53:46.553Z,74.70
2018-06-04T23:55:49.751Z,72.47
2018-06-04T23:57:53.737Z,69.10
2018-06-04T23:59:56.928Z,68.37
